Time;durP1;ratioP1;P1;durP2;ratioP2;P2;SDS_P1;SDS_P2;PMS_P1;PMS_P2;Temp;Humidity;BMP_temperature;BMP_pressure;BME280_temperature;BME280_humidity;BME280_pressure;Samples;Min_cycle;Max_cycle;Signal;HPM_P1;HPM_P2
2023/03/02 00:01:05;;;;;;;28.43;14.90;;;3.20;71.90;;;;;;5017871;28;20504;-78
2023/03/02 00:03:32;;;;;;;30.17;16.13;;;3.20;71.30;;;;;;5034274;28;20104;-78
2023/03/02 00:05:58;;;;;;;29.70;15.53;;;3.10;73.10;;;;;;5001807;28;20028;-78
2023/03/02 00:08:24;;;;;;;31.53;17.00;;;3.10;73.60;;;;;;5017687;28;20116;-78
2023/03/02 00:10:49;;;;;;;32.50;18.23;;;3.00;73.90;;;;;;5001326;28;20130;-78
2023/03/02 00:13:15;;;;;;;33.20;17.20;;;3.00;74.50;;;;;;5034167;28;20042;-78
2023/03/02 00:15:41;;;;;;;35.03;18.67;;;3.10;75.00;;;;;;5001138;28;20135;-78
2023/03/02 00:18:06;;;;;;;37.03;19.43;;;2.90;73.20;;;;;;5001221;28;20037;-78
2023/03/02 00:20:34;;;;;;;30.60;17.63;;;2.90;74.60;;;;;;5001075;28;20354;-78
2023/03/02 00:23:00;;;;;;;37.17;19.87;;;2.90;75.90;;;;;;5001103;28;20022;-78
2023/03/02 00:25:25;;;;;;;34.70;19.87;;;2.80;77.20;;;;;;5017211;28;20079;-78
2023/03/02 00:27:51;;;;;;;38.33;20.10;;;2.90;77.00;;;;;;5034118;28;20030;-78
2023/03/02 00:30:17;;;;;;;37.67;21.00;;;2.80;77.60;;;;;;5000950;28;20028;-78
2023/03/02 00:32:44;;;;;;;43.97;23.03;;;2.80;78.40;;;;;;5017471;28;20040;-78
2023/03/02 00:35:10;;;;;;;48.00;25.17;;;2.80;79.70;;;;;;5034634;28;20504;-78
2023/03/02 00:37:36;;;;;;;44.37;24.87;;;2.80;80.10;;;;;;5033465;28;20046;-78
2023/03/02 00:40:08;;;;;;;49.13;26.87;;;2.80;81.20;;;;;;5033356;28;20128;-78
2023/03/02 00:42:35;;;;;;;51.30;27.13;;;2.70;82.10;;;;;;5017151;28;20025;-78
2023/03/02 00:45:01;;;;;;;56.83;28.10;;;2.70;82.60;;;;;;5016937;28;20537;-78
2023/03/02 00:47:28;;;;;;;51.30;27.83;;;2.60;82.50;;;;;;5033674;28;20053;-78
2023/03/02 00:49:54;;;;;;;51.77;26.13;;;2.60;81.90;;;;;;5033454;28;20049;-77
2023/03/02 00:52:20;;;;;;;49.27;27.03;;;2.60;82.10;;;;;;5016605;28;20489;-78
2023/03/02 00:54:46;;;;;;;55.83;26.17;;;2.40;81.50;;;;;;5016712;28;20087;-78
2023/03/02 00:57:11;;;;;;;51.67;27.03;;;2.50;82.30;;;;;;5034399;28;20064;-78
2023/03/02 00:59:38;;;;;;;56.03;28.03;;;2.50;83.40;;;;;;5000414;28;20021;-78
2023/03/02 01:02:04;;;;;;;58.17;28.97;;;2.50;84.00;;;;;;5034342;28;20033;-77
2023/03/02 01:04:34;;;;;;;57.57;28.70;;;2.40;84.80;;;;;;5033063;28;20017;-78
2023/03/02 01:07:14;;;;;;;60.37;31.20;;;2.40;86.20;;;;;;5032948;28;20072;-78
2023/03/02 01:09:41;;;;;;;57.77;28.77;;;2.40;86.20;;;;;;5032998;28;20052;-78
2023/03/02 01:12:10;;;;;;;54.30;27.37;;;2.40;86.70;;;;;;5034153;28;20025;-78
2023/03/02 01:14:37;;;;;;;58.67;27.33;;;2.40;86.20;;;;;;5032828;28;20033;-78
2023/03/02 01:17:04;;;;;;;54.17;27.17;;;2.40;86.00;;;;;;5032776;28;20424;-78
2023/03/02 01:19:29;;;;;;;58.20;29.47;;;2.30;86.40;;;;;;5032921;28;20029;-78
2023/03/02 01:21:55;;;;;;;49.13;24.40;;;2.40;86.00;;;;;;5000008;28;20549;-78
2023/03/02 01:24:21;;;;;;;52.90;25.43;;;2.40;86.90;;;;;;5033879;28;20378;-78
2023/03/02 01:26:46;;;;;;;53.37;26.73;;;2.40;87.70;;;;;;4999856;28;20026;-78
2023/03/02 01:29:13;;;;;;;58.50;29.73;;;2.40;87.90;;;;;;5033850;28;20120;-78
2023/03/02 01:31:38;;;;;;;53.20;27.37;;;2.40;88.40;;;;;;5016212;28;20022;-78
2023/03/02 01:34:04;;;;;;;56.90;28.13;;;2.40;88.80;;;;;;5015743;28;20025;-78
2023/03/02 01:36:30;;;;;;;50.20;25.37;;;2.40;88.30;;;;;;5015884;28;20370;-78
2023/03/02 01:38:55;;;;;;;56.87;26.77;;;2.40;89.20;;;;;;5032185;28;20050;-77
2023/03/02 01:55:47;;;;;;;54.27;27.27;;;2.40;90.70;;;;;;5072909;28;20086;-85
2023/03/02 01:58:15;;;;;;;56.77;26.77;;;2.40;91.20;;;;;;5072295;28;20060;-85
2023/03/02 02:00:42;;;;;;;57.30;27.70;;;2.30;91.40;;;;;;5073263;28;20103;-84
2023/03/02 02:03:19;;;;;;;56.23;27.90;;;2.40;91.50;;;;;;5039017;28;20098;-84
2023/03/02 02:05:55;;;;;;;61.87;29.27;;;2.30;92.00;;;;;;5073073;28;20024;-84
2023/03/02 02:08:22;;;;;;;55.67;28.80;;;2.30;92.50;;;;;;5055266;28;20123;-85
2023/03/02 02:10:48;;;;;;;64.27;28.93;;;2.30;92.30;;;;;;5038553;28;20021;-86
2023/03/02 02:13:13;;;;;;;48.40;24.87;;;2.30;92.20;;;;;;5055339;28;20135;-86
2023/03/02 02:15:40;;;;;;;59.60;30.17;;;2.30;92.70;;;;;;5038281;28;20073;-87
2023/03/02 02:18:06;;;;;;;56.83;26.27;;;2.30;92.80;;;;;;5039051;28;20396;-86
2023/03/02 02:20:43;;;;;;;54.63;27.13;;;2.30;92.60;;;;;;5038539;28;20021;-86
2023/03/02 02:23:21;;;;;;;51.67;24.50;;;2.30;92.30;;;;;;5055305;28;20029;-87
2023/03/02 02:25:52;;;;;;;52.10;24.57;;;2.30;92.20;;;;;;5054968;28;20123;-85
2023/03/02 02:28:31;;;;;;;52.90;27.53;;;2.30;92.20;;;;;;5072538;28;20495;-85
2023/03/02 02:31:26;;;;;;;50.70;24.03;;;2.30;92.80;;;;;;5072955;28;20021;-85
2023/03/02 02:33:57;;;;;;;48.93;23.10;;;2.20;93.00;;;;;;5066914;28;20036;-85
2023/03/02 02:36:31;;;;;;;48.37;22.23;;;2.30;92.90;;;;;;5055247;28;20499;-84
2023/03/02 02:39:02;;;;;;;41.97;21.77;;;2.30;92.40;;;;;;5054721;28;20031;-83
2023/03/02 02:41:33;;;;;;;44.60;22.40;;;2.30;92.50;;;;;;5067651;28;20016;-84
2023/03/02 02:43:59;;;;;;;49.90;23.90;;;2.20;92.80;;;;;;5043576;28;20076;-84
2023/03/02 02:46:25;;;;;;;43.73;21.77;;;2.20;92.40;;;;;;5035346;28;20024;-85
2023/03/02 02:48:52;;;;;;;42.00;20.80;;;2.20;92.00;;;;;;5056935;28;20032;-84
2023/03/02 02:51:24;;;;;;;49.07;22.50;;;2.20;92.00;;;;;;5022378;28;20036;-84
2023/03/02 02:54:03;;;;;;;41.73;19.87;;;2.10;91.80;;;;;;5044248;28;20060;-85
2023/03/02 02:56:32;;;;;;;41.40;20.30;;;2.20;91.60;;;;;;5075483;28;20049;-85
2023/03/02 02:59:05;;;;;;;40.40;20.60;;;2.20;91.60;;;;;;5075368;28;20035;-85
2023/03/02 03:01:33;;;;;;;41.45;20.08;;;2.20;91.50;;;;;;5075828;28;20028;-85
2023/03/02 03:04:02;;;;;;;41.67;20.33;;;2.20;91.40;;;;;;5075964;28;20029;-87
2023/03/02 03:06:37;;;;;;;39.30;19.73;;;2.20;90.80;;;;;;5074803;28;20063;-84
2023/03/02 03:09:10;;;;;;;42.07;20.60;;;2.20;90.80;;;;;;5076440;28;20020;-85
2023/03/02 03:11:40;;;;;;;39.47;19.40;;;2.30;90.90;;;;;;5075000;28;20016;-85
2023/03/02 03:14:09;;;;;;;42.77;20.63;;;2.20;90.60;;;;;;5076350;28;20107;-82
2023/03/02 03:16:36;;;;;;;43.20;20.80;;;2.20;90.70;;;;;;5075025;28;20390;-86
2023/03/02 03:19:17;;;;;;;46.90;21.77;;;2.30;91.00;;;;;;5074764;28;20021;-85
2023/03/02 03:21:43;;;;;;;43.60;21.60;;;2.20;90.90;;;;;;5074696;28;20464;-84
2023/03/02 03:24:09;;;;;;;50.07;23.77;;;2.10;91.60;;;;;;5074735;28;20016;-83
2023/03/02 03:26:35;;;;;;;50.97;24.00;;;2.10;91.60;;;;;;5058107;28;20033;-84
2023/03/02 03:29:01;;;;;;;53.50;25.80;;;2.10;91.70;;;;;;5074156;28;20028;-84
2023/03/02 03:31:27;;;;;;;50.97;22.73;;;2.10;91.80;;;;;;5058247;28;20098;-84
2023/03/02 03:33:59;;;;;;;46.17;22.77;;;2.00;91.50;;;;;;5085246;28;20032;-84
2023/03/02 03:36:26;;;;;;;48.17;23.10;;;2.00;91.30;;;;;;5094718;28;20048;-84
2023/03/02 03:38:51;;;;;;;46.80;22.33;;;2.00;91.00;;;;;;5095767;28;20382;-85
2023/03/02 03:41:17;;;;;;;49.47;22.77;;;1.90;91.30;;;;;;5064823;28;20054;-85
2023/03/02 03:43:42;;;;;;;45.80;21.37;;;1.90;91.40;;;;;;5077745;28;20490;-84
2023/03/02 03:46:08;;;;;;;46.67;22.77;;;1.90;91.40;;;;;;5072590;28;20017;-83
2023/03/02 03:48:34;;;;;;;44.47;22.57;;;2.00;91.40;;;;;;5072269;28;20453;-81
2023/03/02 03:51:00;;;;;;;49.37;22.80;;;1.90;91.20;;;;;;5074138;28;20035;-83
2023/03/02 03:53:26;;;;;;;52.93;24.13;;;1.80;91.20;;;;;;5074558;28;20032;-83
2023/03/02 03:55:52;;;;;;;51.13;24.50;;;1.80;91.90;;;;;;5074409;28;20434;-82
2023/03/02 03:58:18;;;;;;;46.77;22.57;;;1.80;91.40;;;;;;5073258;28;20031;-84
2023/03/02 04:00:46;;;;;;;48.93;23.20;;;1.70;91.60;;;;;;5074976;28;20077;-85
2023/03/02 04:03:13;;;;;;;46.30;22.57;;;1.70;91.80;;;;;;5073954;28;20032;-84
2023/03/02 04:05:39;;;;;;;44.20;21.03;;;1.70;91.50;;;;;;5074016;28;20029;-84
2023/03/02 04:08:05;;;;;;;47.00;22.07;;;1.60;91.40;;;;;;5073388;28;20448;-84
2023/03/02 04:10:32;;;;;;;44.37;20.60;;;1.70;91.70;;;;;;5074013;28;20036;-84
2023/03/02 04:12:57;;;;;;;52.13;24.50;;;1.70;91.40;;;;;;5073600;28;20021;-84
2023/03/02 04:15:23;;;;;;;51.17;22.80;;;1.50;91.80;;;;;;5056897;28;20036;-84
2023/03/02 04:17:49;;;;;;;49.03;22.93;;;1.50;91.70;;;;;;5057250;28;20039;-83
2023/03/02 04:20:15;;;;;;;49.93;20.77;;;1.50;91.70;;;;;;5073532;28;20025;-83
2023/03/02 04:22:46;;;;;;;47.60;21.07;;;1.50;91.50;;;;;;5073442;28;20025;-83
2023/03/02 04:25:14;;;;;;;45.30;21.37;;;1.40;91.30;;;;;;5073242;28;20028;-83
2023/03/02 04:27:40;;;;;;;47.13;22.60;;;1.50;91.50;;;;;;5073373;28;20028;-83
2023/03/02 04:30:07;;;;;;;49.77;22.10;;;1.40;91.70;;;;;;5056710;28;20024;-83
2023/03/02 04:32:33;;;;;;;51.53;23.27;;;1.40;92.60;;;;;;5074404;28;20032;-84
2023/03/02 04:34:59;;;;;;;49.73;22.67;;;1.40;92.70;;;;;;5073323;28;20119;-84
2023/03/02 04:37:25;;;;;;;51.90;21.90;;;1.40;92.10;;;;;;5073182;28;20564;-83
2023/03/02 04:39:51;;;;;;;54.20;24.37;;;1.30;92.10;;;;;;5056672;28;20024;-84
2023/03/02 04:42:20;;;;;;;49.07;21.97;;;1.50;92.70;;;;;;5073043;28;20029;-84
2023/03/02 04:44:46;;;;;;;49.50;22.97;;;1.40;92.70;;;;;;5072789;28;20021;-84
2023/03/02 04:47:12;;;;;;;51.67;22.50;;;1.30;92.90;;;;;;5073015;28;20535;-84
2023/03/02 04:49:38;;;;;;;47.87;22.10;;;1.40;92.80;;;;;;5073459;28;20070;-84
2023/03/02 04:52:04;;;;;;;43.37;20.27;;;1.30;92.70;;;;;;5056191;28;20032;-84
2023/03/02 04:54:30;;;;;;;46.57;20.80;;;1.30;92.60;;;;;;5074240;28;20486;-84
2023/03/02 04:56:56;;;;;;;51.73;21.40;;;1.30;92.50;;;;;;5072405;28;20056;-84
2023/03/02 04:59:27;;;;;;;49.03;21.97;;;1.30;92.70;;;;;;5055930;28;20029;-84
2023/03/02 05:01:54;;;;;;;47.83;20.70;;;1.30;92.20;;;;;;5073067;28;20024;-82
2023/03/02 05:04:20;;;;;;;47.20;20.90;;;1.30;92.20;;;;;;5074010;28;20098;-82
2023/03/02 05:06:46;;;;;;;45.07;20.53;;;1.20;92.00;;;;;;5073586;28;20052;-84
2023/03/02 05:09:12;;;;;;;42.90;21.77;;;1.20;91.90;;;;;;5072932;28;20379;-82
2023/03/02 05:11:38;;;;;;;51.67;22.80;;;1.20;92.40;;;;;;5090602;28;20031;-82
2023/03/02 05:14:07;;;;;;;51.30;21.03;;;1.30;93.00;;;;;;5096091;28;20047;-82
2023/03/02 05:16:35;;;;;;;47.73;20.70;;;1.20;92.60;;;;;;5112884;28;20077;-82
2023/03/02 05:19:02;;;;;;;46.07;21.20;;;1.30;92.90;;;;;;5113273;28;20020;-82
2023/03/02 05:21:29;;;;;;;45.33;19.57;;;1.20;92.50;;;;;;5114363;27;20023;-83
2023/03/02 05:23:54;;;;;;;47.57;20.10;;;1.20;92.30;;;;;;5113197;28;20485;-83
2023/03/02 05:26:20;;;;;;;47.20;20.87;;;1.20;92.20;;;;;;5112860;28;20123;-83
2023/03/02 05:28:46;;;;;;;46.33;19.73;;;1.30;92.40;;;;;;5113944;28;20383;-84
2023/03/02 05:31:29;;;;;;;41.60;17.33;;;1.20;92.10;;;;;;5113945;28;20028;-83
2023/03/02 05:33:54;;;;;;;41.37;19.83;;;1.20;92.10;;;;;;5112916;28;20035;-84
2023/03/02 05:36:20;;;;;;;43.07;19.17;;;1.20;92.30;;;;;;5113578;28;20065;-82
2023/03/02 05:38:46;;;;;;;44.77;19.27;;;1.20;92.10;;;;;;5112772;28;20072;-82
2023/03/02 05:41:11;;;;;;;43.03;20.03;;;1.20;92.10;;;;;;5096232;28;20027;-82
2023/03/02 05:43:37;;;;;;;39.80;17.90;;;1.20;92.00;;;;;;5095778;28;20059;-82
2023/03/02 05:46:03;;;;;;;43.53;19.20;;;1.20;92.10;;;;;;5084303;28;20063;-83
2023/03/02 05:48:30;;;;;;;44.03;19.93;;;1.20;92.40;;;;;;5075491;28;20537;-85
2023/03/02 05:50:56;;;;;;;44.53;20.73;;;1.20;92.40;;;;;;5092391;28;20142;-84
2023/03/02 05:53:22;;;;;;;46.40;21.87;;;1.10;92.50;;;;;;5092816;28;20020;-84
2023/03/02 05:55:48;;;;;;;46.37;21.10;;;1.20;92.30;;;;;;5093041;28;20456;-82
2023/03/02 05:58:16;;;;;;;41.90;20.60;;;1.10;92.20;;;;;;5091845;28;20467;-92
2023/03/02 06:00:42;;;;;;;45.57;21.20;;;1.20;92.10;;;;;;5094978;28;20035;-84
2023/03/02 06:03:08;;;;;;;42.60;19.70;;;1.20;92.10;;;;;;5108939;28;20028;-84
2023/03/02 06:05:34;;;;;;;48.20;23.03;;;1.10;92.00;;;;;;5100594;28;20471;-84
2023/03/02 06:08:00;;;;;;;47.73;21.93;;;1.10;92.40;;;;;;5102792;28;20031;-84
2023/03/02 06:10:25;;;;;;;49.27;21.13;;;1.10;92.20;;;;;;5094111;28;20070;-83
2023/03/02 06:12:51;;;;;;;43.90;19.63;;;1.10;92.20;;;;;;5091826;28;20102;-84
2023/03/02 06:15:17;;;;;;;48.93;21.63;;;1.10;92.20;;;;;;5075083;28;20028;-84
2023/03/02 06:17:43;;;;;;;50.43;22.37;;;1.10;92.40;;;;;;5075667;28;20115;-84
2023/03/02 06:20:09;;;;;;;50.33;21.83;;;1.10;92.20;;;;;;5082988;28;20051;-84
2023/03/02 06:22:45;;;;;;;48.23;21.17;;;1.10;92.50;;;;;;5095610;28;20027;-84
2023/03/02 06:25:14;;;;;;;49.43;22.10;;;1.10;92.60;;;;;;5103953;28;20088;-83
2023/03/02 06:27:40;;;;;;;47.97;22.63;;;1.10;92.90;;;;;;5104157;28;20035;-83
2023/03/02 06:30:08;;;;;;;51.87;21.47;;;1.10;93.30;;;;;;5096082;28;20039;-84
2023/03/02 06:32:34;;;;;;;54.67;24.07;;;1.10;93.50;;;;;;5117108;28;20111;-84
2023/03/02 06:35:04;;;;;;;48.70;23.60;;;1.10;93.60;;;;;;5116399;28;20047;-83
2023/03/02 06:37:31;;;;;;;49.73;22.17;;;1.10;93.50;;;;;;5115000;28;20048;-83
2023/03/02 06:39:57;;;;;;;50.03;22.20;;;1.10;93.90;;;;;;5098589;28;20055;-84
2023/03/02 06:42:25;;;;;;;50.47;23.27;;;1.10;93.90;;;;;;5115824;28;20020;-83
2023/03/02 06:44:50;;;;;;;50.47;22.93;;;1.10;93.80;;;;;;5115774;28;20114;-83
2023/03/02 06:47:17;;;;;;;50.73;22.53;;;1.10;93.70;;;;;;5113999;28;20099;-83
2023/03/02 06:49:43;;;;;;;53.10;23.43;;;1.30;93.80;;;;;;5078244;28;20021;-83
2023/03/02 06:52:09;;;;;;;49.60;21.83;;;1.10;93.80;;;;;;5086965;28;20035;-82
2023/03/02 06:54:35;;;;;;;50.47;23.70;;;1.20;94.00;;;;;;5085458;28;20376;-81
2023/03/02 06:57:01;;;;;;;49.53;22.97;;;1.20;93.90;;;;;;5094449;28;20040;-83
2023/03/02 06:59:27;;;;;;;52.07;22.63;;;1.20;93.80;;;;;;5083031;28;20040;-83
2023/03/02 07:01:53;;;;;;;49.63;21.83;;;1.10;93.80;;;;;;5073868;28;20025;-83
2023/03/02 07:04:19;;;;;;;48.57;22.10;;;1.20;93.80;;;;;;5057127;28;20490;-84
2023/03/02 07:06:44;;;;;;;56.57;24.67;;;1.20;93.80;;;;;;5074919;28;20455;-84
2023/03/02 07:09:10;;;;;;;50.43;21.93;;;1.20;93.90;;;;;;5059156;28;20148;-85
2023/03/02 07:11:36;;;;;;;45.53;20.67;;;1.20;93.70;;;;;;5075808;28;20428;-83
2023/03/02 07:14:02;;;;;;;51.93;20.57;;;1.30;93.70;;;;;;5058078;28;20029;-84
2023/03/02 07:16:29;;;;;;;45.80;20.33;;;1.30;94.00;;;;;;5058511;28;20039;-83
2023/03/02 07:18:54;;;;;;;51.07;20.47;;;1.30;94.10;;;;;;5074940;28;20025;-84
2023/03/02 07:21:20;;;;;;;46.77;21.03;;;1.30;94.10;;;;;;5074704;28;20035;-86
2023/03/02 07:23:46;;;;;;;49.87;20.83;;;1.30;94.10;;;;;;5058629;28;20033;-85
2023/03/02 07:26:11;;;;;;;45.13;21.03;;;1.40;94.20;;;;;;5074954;28;20081;-84
2023/03/02 07:28:39;;;;;;;45.03;19.40;;;1.40;94.30;;;;;;5062826;28;20050;-85
2023/03/02 07:31:05;;;;;;;47.27;21.47;;;1.40;94.10;;;;;;5095044;28;20032;-84
2023/03/02 07:33:31;;;;;;;49.27;22.63;;;1.50;94.10;;;;;;5093880;28;20020;-84
2023/03/02 07:35:56;;;;;;;44.63;20.83;;;1.50;94.00;;;;;;5095091;28;20036;-84
2023/03/02 07:38:23;;;;;;;46.87;20.90;;;1.60;93.90;;;;;;5078025;28;20052;-84
2023/03/02 07:40:50;;;;;;;46.50;20.60;;;1.60;93.90;;;;;;5077828;28;20066;-85
2023/03/02 07:43:16;;;;;;;49.63;20.77;;;1.60;93.80;;;;;;5077782;28;20370;-84
2023/03/02 07:45:42;;;;;;;45.70;21.37;;;1.70;93.90;;;;;;5094855;28;20077;-83
2023/03/02 07:48:07;;;;;;;45.13;20.37;;;1.70;93.90;;;;;;5076028;28;20032;-84
2023/03/02 07:50:33;;;;;;;41.23;17.10;;;1.80;93.70;;;;;;5075598;28;20024;-84
2023/03/02 07:52:59;;;;;;;38.50;17.77;;;1.90;93.60;;;;;;5092127;28;20056;-83
2023/03/02 07:55:25;;;;;;;40.47;17.73;;;1.90;93.30;;;;;;5075923;28;20067;-84
2023/03/02 07:57:50;;;;;;;41.17;17.23;;;1.90;93.20;;;;;;5075164;28;20083;-83
2023/03/02 08:00:17;;;;;;;35.43;16.63;;;2.00;92.90;;;;;;5075987;28;20056;-83
2023/03/02 08:02:42;;;;;;;35.07;14.90;;;2.10;92.80;;;;;;5076411;28;20098;-83
2023/03/02 08:05:09;;;;;;;37.23;16.63;;;2.20;92.50;;;;;;5077159;28;20115;-84
2023/03/02 08:07:35;;;;;;;35.60;16.20;;;2.10;92.30;;;;;;5077327;28;20478;-84
2023/03/02 08:10:01;;;;;;;41.73;16.83;;;2.30;92.30;;;;;;5094001;28;20068;-83
2023/03/02 08:12:27;;;;;;;35.00;16.67;;;2.40;92.30;;;;;;5076835;28;20028;-84
2023/03/02 08:14:53;;;;;;;35.10;15.73;;;2.40;92.20;;;;;;5094403;28;20028;-83
2023/03/02 08:17:19;;;;;;;33.93;16.83;;;2.40;92.10;;;;;;5076884;28;20112;-84
2023/03/02 08:19:44;;;;;;;36.43;15.87;;;2.40;92.10;;;;;;5093681;28;20040;-84
2023/03/02 08:22:10;;;;;;;40.37;17.07;;;2.50;91.90;;;;;;5094304;28;20031;-83
2023/03/02 08:24:36;;;;;;;35.53;16.33;;;2.70;92.00;;;;;;5094116;28;20043;-84
2023/03/02 08:27:03;;;;;;;31.27;15.00;;;2.70;91.90;;;;;;5093837;28;20472;-84
2023/03/02 08:29:29;;;;;;;35.63;15.93;;;2.60;91.80;;;;;;5093863;28;20028;-84
2023/03/02 08:31:57;;;;;;;34.20;15.77;;;2.70;91.70;;;;;;5093919;28;20464;-84
2023/03/02 08:34:24;;;;;;;33.03;15.73;;;2.80;91.50;;;;;;5093698;28;20110;-84
2023/03/02 08:36:49;;;;;;;30.73;14.90;;;2.90;91.40;;;;;;5076664;28;20097;-84
2023/03/02 08:39:15;;;;;;;30.30;14.07;;;2.90;91.30;;;;;;5093270;28;20036;-84
2023/03/02 08:41:41;;;;;;;28.60;13.63;;;3.00;91.20;;;;;;5093659;28;20089;-84
2023/03/02 08:44:07;;;;;;;31.83;13.53;;;3.10;91.10;;;;;;5075733;28;20032;-82
2023/03/02 08:46:33;;;;;;;36.10;15.77;;;3.10;90.90;;;;;;5093294;28;20129;-84
2023/03/02 08:48:59;;;;;;;31.43;13.97;;;3.20;90.70;;;;;;5093222;28;20019;-84
2023/03/02 08:51:27;;;;;;;31.60;14.67;;;3.30;90.70;;;;;;5076656;28;20043;-84
2023/03/02 08:53:54;;;;;;;31.03;14.93;;;3.30;90.40;;;;;;5094615;28;20029;-84
2023/03/02 08:56:28;;;;;;;31.30;14.50;;;3.40;90.30;;;;;;5075906;28;20090;-84
2023/03/02 08:58:57;;;;;;;32.93;14.47;;;3.50;90.20;;;;;;5092961;28;20036;-84
2023/03/02 09:01:31;;;;;;;30.37;14.63;;;3.50;90.00;;;;;;5093167;28;20023;-83
2023/03/02 09:04:00;;;;;;;30.53;13.60;;;3.60;89.90;;;;;;5093841;28;20375;-84
2023/03/02 09:06:28;;;;;;;29.13;14.60;;;3.70;89.50;;;;;;5093179;28;20024;-84
2023/03/02 09:08:54;;;;;;;30.07;14.07;;;3.70;89.30;;;;;;5093105;28;20150;-84
2023/03/02 09:11:20;;;;;;;33.73;15.43;;;3.80;89.00;;;;;;5094420;28;20020;-84
2023/03/02 09:13:46;;;;;;;35.10;14.73;;;3.90;88.90;;;;;;5092573;28;20039;-84
2023/03/02 09:16:13;;;;;;;28.97;14.43;;;3.90;88.30;;;;;;5093721;28;20047;-83
2023/03/02 09:18:38;;;;;;;29.50;14.13;;;4.00;88.10;;;;;;5093604;28;20034;-84
2023/03/02 09:21:05;;;;;;;27.43;13.93;;;4.10;87.40;;;;;;5076276;28;20114;-84
2023/03/02 09:23:31;;;;;;;30.50;13.57;;;4.20;86.60;;;;;;5092286;28;20020;-84
2023/03/02 09:25:57;;;;;;;31.57;14.73;;;4.30;86.00;;;;;;5093454;28;20024;-84
2023/03/02 09:28:23;;;;;;;29.40;12.67;;;4.30;85.90;;;;;;5093625;28;20028;-84
2023/03/02 09:30:55;;;;;;;33.93;15.00;;;4.40;85.80;;;;;;5093264;28;20085;-84
2023/03/02 09:33:21;;;;;;;25.70;12.63;;;4.40;85.40;;;;;;5094030;28;20024;-84
2023/03/02 09:35:47;;;;;;;28.73;13.10;;;4.50;85.40;;;;;;5093769;28;20105;-83
2023/03/02 09:38:17;;;;;;;31.30;14.07;;;4.50;85.00;;;;;;5076323;28;20024;-84
2023/03/02 09:40:57;;;;;;;29.17;13.87;;;4.60;85.00;;;;;;5094282;28;20028;-84
2023/03/02 09:43:58;;;;;;;30.97;14.30;;;4.60;84.50;;;;;;5094031;28;20070;-84
2023/03/02 09:46:43;;;;;;;26.60;13.97;;;4.70;84.40;;;;;;5093152;28;20058;-83
2023/03/02 09:49:34;;;;;;;32.17;14.63;;;4.80;84.20;;;;;;5092279;28;20028;-83
2023/03/02 09:52:39;;;;;;;32.83;14.27;;;4.90;84.10;;;;;;5093475;28;20475;-84
2023/03/02 09:55:17;;;;;;;32.67;14.50;;;4.90;83.50;;;;;;5093387;28;20150;-84
2023/03/02 09:57:45;;;;;;;32.73;15.13;;;5.00;83.30;;;;;;5091228;28;20379;-84
2023/03/02 10:00:11;;;;;;;31.60;14.67;;;5.10;83.70;;;;;;5075688;28;20137;-84
2023/03/02 10:02:56;;;;;;;33.47;14.77;;;5.20;82.80;;;;;;5092479;28;20375;-84
2023/03/02 10:05:27;;;;;;;35.10;16.07;;;5.40;82.60;;;;;;5093831;28;20028;-84
2023/03/02 10:07:53;;;;;;;30.80;14.73;;;5.70;81.90;;;;;;5093551;28;20020;-83
2023/03/02 10:10:39;;;;;;;27.97;13.50;;;6.00;82.00;;;;;;5075528;28;20031;-84
2023/03/02 10:13:21;;;;;;;23.50;12.17;;;6.40;82.70;;;;;;5093617;28;20486;-84
2023/03/02 10:16:14;;;;;;;23.07;11.70;;;7.00;83.80;;;;;;5093486;28;20502;-83
2023/03/02 10:18:48;;;;;;;20.20;11.30;;;7.60;84.80;;;;;;5091874;28;20027;-85
2023/03/02 10:21:31;;;;;;;20.42;10.73;;;8.40;85.60;;;;;;5092392;28;20020;-85
2023/03/02 10:24:13;;;;;;;22.27;12.07;;;9.30;84.70;;;;;;5093285;28;20070;-85
2023/03/02 10:26:42;;;;;;;17.55;9.48;;;10.30;83.30;;;;;;5092370;28;20031;-84
2023/03/02 10:29:16;;;;;;;17.38;9.65;;;11.20;83.10;;;;;;5093100;28;20050;-85
2023/03/02 10:31:44;;;;;;;14.85;8.45;;;12.10;79.30;;;;;;5092196;28;20069;-83
2023/03/02 10:34:10;;;;;;;16.13;8.45;;;12.90;78.20;;;;;;5092424;28;20048;-84
2023/03/02 10:36:39;;;;;;;15.10;8.68;;;13.70;74.50;;;;;;5093107;28;20048;-84
2023/03/02 10:39:13;;;;;;;13.80;8.30;;;14.40;71.20;;;;;;5092015;28;20024;-84
2023/03/02 10:41:48;;;;;;;14.00;8.20;;;15.20;68.50;;;;;;5075172;28;20052;-84
2023/03/02 10:44:22;;;;;;;12.90;7.85;;;15.80;64.90;;;;;;5092352;28;20031;-83
2023/03/02 10:46:50;;;;;;;10.40;6.45;;;16.50;63.20;;;;;;5092121;28;20056;-83
2023/03/02 10:49:27;;;;;;;11.60;6.88;;;17.10;62.50;;;;;;5092806;28;20546;-84
2023/03/02 10:52:05;;;;;;;11.82;7.40;;;17.60;59.50;;;;;;5092052;28;20028;-84
2023/03/02 10:54:33;;;;;;;12.57;7.88;;;18.10;57.70;;;;;;5093154;28;20039;-83
2023/03/02 10:57:01;;;;;;;11.40;7.43;;;18.60;56.60;;;;;;5092143;28;20071;-84
2023/03/02 10:59:37;;;;;;;10.65;6.72;;;19.00;54.60;;;;;;5100048;28;20031;-85
2023/03/02 11:02:21;;;;;;;10.75;6.93;;;19.40;53.00;;;;;;5098017;28;20072;-84
2023/03/02 11:04:48;;;;;;;9.98;6.18;;;19.90;51.20;;;;;;5090464;28;20048;-83
2023/03/02 11:07:17;;;;;;;11.02;7.00;;;20.30;50.50;;;;;;5074537;28;20028;-83
2023/03/02 11:10:02;;;;;;;11.25;6.60;;;20.70;49.10;;;;;;5076282;28;20031;-83
2023/03/02 11:12:28;;;;;;;11.32;6.85;;;21.00;47.40;;;;;;5075496;28;20107;-83
2023/03/02 11:15:12;;;;;;;11.95;7.53;;;21.30;45.90;;;;;;5076530;28;20476;-83
2023/03/02 11:17:39;;;;;;;10.10;6.53;;;21.60;44.00;;;;;;5059971;28;20044;-83
2023/03/02 11:20:13;;;;;;;9.70;6.35;;;21.70;43.70;;;;;;5075096;28;20435;-83
2023/03/02 11:23:02;;;;;;;12.85;8.18;;;21.80;42.30;;;;;;5075050;28;20064;-83
2023/03/02 11:25:34;;;;;;;11.10;6.47;;;22.10;41.20;;;;;;5074787;28;20465;-82
2023/03/02 11:28:10;;;;;;;9.80;5.85;;;22.30;41.70;;;;;;5075042;28;20310;-83
2023/03/02 11:30:43;;;;;;;10.25;6.65;;;22.60;40.60;;;;;;5075573;28;20107;-83
2023/03/02 11:33:32;;;;;;;;;;;22.80;40.00;;;;;;5076161;28;20031;-83
2023/03/02 11:36:29;;;;;;;10.48;5.82;;;23.00;40.10;;;;;;5075814;28;19960;-83
2023/03/02 11:38:55;;;;;;;10.73;6.40;;;23.30;39.60;;;;;;5075424;28;20033;-83
2023/03/02 11:41:31;;;;;;;9.63;6.13;;;23.50;39.30;;;;;;5040737;28;20150;-83
2023/03/02 11:44:00;;;;;;;10.07;6.43;;;23.60;38.40;;;;;;5073941;28;20033;-82
2023/03/02 11:46:32;;;;;;;8.75;6.07;;;23.70;38.20;;;;;;5073208;28;20031;-82
2023/03/02 11:49:06;;;;;;;8.68;5.78;;;23.90;37.60;;;;;;5072615;28;20027;-82
2023/03/02 11:51:37;;;;;;;8.90;6.43;;;24.10;37.30;;;;;;5073775;28;20445;-82
2023/03/02 11:54:04;;;;;;;8.32;6.07;;;24.30;36.80;;;;;;5075393;28;20643;-82
2023/03/02 11:56:35;;;;;;;9.18;6.47;;;24.40;36.10;;;;;;5074099;28;20510;-83
2023/03/02 11:59:05;;;;;;;9.20;5.90;;;24.50;35.70;;;;;;5075057;28;20095;-82
2023/03/02 12:01:34;;;;;;;10.57;6.50;;;24.60;35.80;;;;;;5074078;28;20020;-82
2023/03/02 12:04:25;;;;;;;8.60;5.35;;;24.70;35.40;;;;;;5075469;28;20024;-82
2023/03/02 12:06:51;;;;;;;9.40;6.22;;;24.80;34.50;;;;;;5074674;28;20028;-82
2023/03/02 12:09:23;;;;;;;8.55;5.68;;;25.00;34.20;;;;;;5074215;28;20033;-82
2023/03/02 12:12:10;;;;;;;9.02;6.10;;;25.00;34.00;;;;;;5073871;28;20030;-82
2023/03/02 12:14:38;;;;;;;8.13;5.35;;;25.00;33.80;;;;;;5074991;28;20036;-82
2023/03/02 12:17:21;;;;;;;9.25;5.60;;;25.00;33.80;;;;;;5056781;28;20491;-81
2023/03/02 12:19:49;;;;;;;12.45;7.00;;;25.00;33.60;;;;;;5073498;28;20476;-82
2023/03/02 12:22:27;;;;;;;9.05;5.72;;;25.00;34.10;;;;;;5073717;28;20426;-82
2023/03/02 12:25:17;;;;;;;9.73;6.28;;;25.10;33.60;;;;;;5073817;28;20123;-82
2023/03/02 12:27:43;;;;;;;12.15;6.47;;;25.30;33.20;;;;;;5074891;28;20104;-81
2023/03/02 12:30:15;;;;;;;11.10;6.25;;;25.30;33.20;;;;;;5073589;28;20025;-81
2023/03/02 12:32:46;;;;;;;11.15;6.57;;;25.40;33.20;;;;;;5074943;28;20077;-82
2023/03/02 12:35:16;;;;;;;8.68;5.63;;;25.60;33.10;;;;;;5073681;28;20024;-81
2023/03/02 12:38:00;;;;;;;9.10;5.53;;;25.70;33.00;;;;;;5074552;28;20045;-81
2023/03/02 12:40:44;;;;;;;;;;;25.90;32.70;;;;;;5075213;28;20032;-81
2023/03/02 12:43:33;;;;;;;7.95;4.65;;;26.00;32.90;;;;;;5073373;28;19905;-82
2023/03/02 12:46:18;;;;;;;8.85;5.25;;;26.10;32.60;;;;;;5074366;28;20057;-81
2023/03/02 12:49:11;;;;;;;8.90;5.75;;;26.10;32.40;;;;;;5073006;28;20021;-81
2023/03/02 12:51:46;;;;;;;9.70;6.00;;;26.10;32.00;;;;;;5074278;28;20017;-82
2023/03/02 12:54:17;;;;;;;7.10;5.15;;;26.30;31.60;;;;;;5074135;28;20032;-81
2023/03/02 12:56:43;;;;;;;9.88;6.13;;;26.40;31.50;;;;;;5072621;28;20064;-81
2023/03/02 12:59:26;;;;;;;8.52;5.65;;;26.50;31.50;;;;;;5073890;28;20060;-81
2023/03/02 13:02:02;;;;;;;8.55;5.68;;;26.70;31.40;;;;;;5074123;28;20063;-81
2023/03/02 13:04:28;;;;;;;10.30;5.38;;;26.80;31.60;;;;;;5074141;28;20059;-81